createdAt,value
2022-10-02T00:02:22.844Z,6.40
2022-10-02T00:05:21.789Z,6.40
2022-10-02T00:07:58.530Z,4.80
2022-10-02T00:10:31.729Z,7.10
2022-10-02T00:13:04.954Z,1.80
2022-10-02T00:15:39.720Z,2.90
2022-10-02T00:18:14.968Z,2.90
2022-10-02T00:21:09.115Z,4.80
2022-10-02T00:23:49.240Z,5.10
2022-10-02T00:26:20.337Z,3.30
2022-10-02T00:29:00.686Z,3.00
2022-10-02T00:31:45.000Z,2.30
2022-10-02T00:34:48.364Z,2.60
2022-10-02T00:37:34.356Z,2.50
2022-10-02T00:40:33.648Z,2.10
2022-10-02T00:43:01.931Z,3.80
2022-10-02T00:45:37.048Z,2.20
2022-10-02T00:48:20.039Z,3.30
2022-10-02T00:50:53.997Z,3.10
2022-10-02T00:53:40.821Z,1.90
2022-10-02T00:56:31.270Z,2.60
2022-10-02T00:59:13.685Z,5.50
2022-10-02T01:01:54.229Z,2.30
2022-10-02T01:04:37.161Z,2.40
2022-10-02T01:07:08.960Z,5.80
2022-10-02T01:09:37.990Z,2.60
2022-10-02T01:12:05.800Z,2.50
2022-10-02T01:14:38.768Z,4.70
2022-10-02T01:17:21.602Z,2.80
2022-10-02T01:19:50.244Z,3.10
2022-10-02T01:22:36.672Z,4.30
2022-10-02T01:25:06.668Z,4.40
2022-10-02T01:27:39.205Z,2.50
2022-10-02T01:30:14.443Z,2.90
2022-10-02T01:32:47.698Z,4.00
2022-10-02T01:35:16.812Z,4.10
2022-10-02T01:38:07.270Z,4.10
2022-10-02T01:40:47.980Z,2.40
2022-10-02T01:43:33.011Z,2.80
2022-10-02T01:46:28.292Z,4.90
2022-10-02T01:49:05.905Z,3.30
2022-10-02T01:52:12.379Z,3.30
2022-10-02T01:54:53.212Z,3.20
2022-10-02T01:57:36.110Z,3.70
2022-10-02T02:00:13.067Z,2.50
2022-10-02T02:03:05.871Z,3.30
2022-10-02T02:05:47.350Z,4.20
2022-10-02T02:08:28.983Z,4.70
2022-10-02T02:11:23.132Z,2.90
2022-10-02T02:13:59.995Z,3.20
2022-10-02T02:16:42.854Z,3.50
2022-10-02T02:19:36.870Z,3.70
2022-10-02T02:22:09.121Z,3.70
2022-10-02T02:24:39.540Z,5.90
2022-10-02T02:27:11.608Z,3.00
2022-10-02T02:29:43.473Z,3.50
2022-10-02T02:32:16.471Z,6.90
2022-10-02T02:34:57.849Z,2.20
2022-10-02T02:37:29.657Z,2.20
2022-10-02T02:40:02.199Z,3.10
2022-10-02T02:42:34.078Z,3.60
2022-10-02T02:45:37.763Z,3.70
2022-10-02T02:48:16.534Z,5.80
2022-10-02T02:50:57.649Z,2.80
2022-10-02T02:53:35.036Z,2.20
2022-10-02T02:56:06.871Z,6.40
2022-10-02T02:58:58.427Z,3.50
2022-10-02T03:01:27.248Z,2.80
2022-10-02T03:03:55.170Z,2.10
2022-10-02T03:06:31.737Z,3.30
2022-10-02T03:09:01.480Z,3.80
2022-10-02T03:11:44.495Z,3.20
2022-10-02T03:14:12.784Z,2.10
2022-10-02T03:17:07.694Z,3.10
2022-10-02T03:19:47.380Z,2.90
2022-10-02T03:22:36.571Z,2.20
2022-10-02T03:25:34.774Z,4.20
2022-10-02T03:28:50.471Z,2.90
2022-10-02T03:31:17.014Z,3.80
2022-10-02T03:33:46.624Z,2.20
2022-10-02T03:36:17.993Z,2.80
2022-10-02T03:38:56.920Z,3.50
2022-10-02T03:41:34.439Z,2.40
2022-10-02T03:44:02.416Z,2.60
2022-10-02T03:46:30.781Z,14.30
2022-10-02T03:48:58.908Z,4.20
2022-10-02T03:51:26.840Z,3.40
2022-10-02T03:53:54.775Z,3.90
2022-10-02T03:56:41.608Z,2.20
2022-10-02T03:59:27.347Z,2.60
2022-10-02T04:01:57.417Z,3.30
2022-10-02T04:04:38.221Z,2.80
2022-10-02T04:07:12.993Z,2.30
2022-10-02T04:09:52.076Z,2.50
2022-10-02T04:12:29.273Z,5.60
2022-10-02T04:15:09.580Z,2.20
2022-10-02T04:17:48.049Z,3.30
2022-10-02T04:20:31.736Z,4.10
2022-10-02T04:23:06.704Z,3.20
2022-10-02T04:25:39.884Z,5.10
2022-10-02T04:28:17.571Z,4.40
2022-10-02T04:30:45.449Z,4.40
2022-10-02T04:33:16.085Z,3.30
2022-10-02T04:35:59.154Z,6.20
2022-10-02T04:38:52.292Z,3.20
2022-10-02T04:42:15.322Z,4.20
2022-10-02T04:44:43.155Z,6.00
2022-10-02T04:47:23.613Z,3.80
2022-10-02T04:49:57.365Z,5.00
2022-10-02T04:52:34.096Z,3.70
2022-10-02T04:55:37.079Z,3.20
2022-10-02T04:58:21.735Z,2.70
2022-10-02T05:01:02.763Z,3.50
2022-10-02T05:03:45.593Z,3.40
2022-10-02T05:06:40.858Z,3.20
2022-10-02T05:09:14.675Z,2.80
2022-10-02T05:11:55.605Z,3.90
2022-10-02T05:15:03.991Z,4.20
2022-10-02T05:18:03.901Z,4.00
2022-10-02T05:20:45.978Z,3.90
2022-10-02T05:23:40.918Z,6.30
2022-10-02T05:26:42.857Z,4.40
2022-10-02T05:29:28.952Z,4.00
2022-10-02T05:32:31.273Z,3.70
2022-10-02T05:35:05.076Z,4.00
2022-10-02T05:40:32.427Z,4.10
2022-10-02T05:43:29.833Z,4.40
2022-10-02T05:46:02.756Z,3.30
2022-10-02T05:48:54.274Z,2.60
2022-10-02T05:51:40.764Z,3.70
2022-10-02T05:54:31.653Z,3.70
2022-10-02T05:57:06.819Z,4.80
2022-10-02T05:59:53.075Z,4.50
2022-10-02T06:02:45.608Z,4.00
2022-10-02T06:05:30.680Z,3.90
2022-10-02T06:08:02.865Z,3.90
2022-10-02T06:10:41.142Z,4.70
2022-10-02T06:13:25.995Z,3.20
2022-10-02T06:16:13.850Z,6.10
2022-10-02T06:18:46.452Z,4.80
2022-10-02T06:21:31.708Z,4.20
2022-10-02T06:24:05.882Z,4.80
2022-10-02T06:26:43.780Z,3.20
2022-10-02T06:29:27.249Z,4.50
2022-10-02T06:32:22.369Z,3.60
2022-10-02T06:34:50.743Z,3.50
2022-10-02T06:37:53.459Z,2.30
2022-10-02T06:40:43.381Z,4.50
2022-10-02T06:43:32.850Z,3.00
2022-10-02T06:46:17.873Z,3.30
2022-10-02T06:48:46.259Z,4.20
2022-10-02T06:51:35.189Z,2.80
2022-10-02T06:54:12.393Z,4.30
2022-10-02T06:57:03.632Z,3.30
2022-10-02T07:00:12.883Z,3.90
2022-10-02T07:03:09.300Z,3.00
2022-10-02T07:06:12.192Z,2.20
2022-10-02T07:08:46.140Z,2.60
2022-10-02T07:11:43.396Z,2.60
2022-10-02T07:14:45.804Z,2.80
2022-10-02T07:17:22.883Z,2.90
2022-10-02T07:20:09.376Z,2.50
2022-10-02T07:22:58.807Z,1.90
2022-10-02T07:25:39.761Z,2.60
2022-10-02T07:28:27.546Z,4.40
2022-10-02T07:31:18.883Z,5.10
2022-10-02T07:34:06.484Z,4.00
2022-10-02T07:36:46.765Z,5.50
2022-10-02T07:39:28.668Z,2.10
2022-10-02T07:42:12.112Z,1.80
2022-10-02T07:44:45.776Z,2.20
2022-10-02T07:47:41.068Z,2.20
2022-10-02T07:50:39.393Z,2.00
2022-10-02T07:53:25.612Z,2.70
2022-10-02T07:55:54.968Z,4.00
2022-10-02T07:58:41.280Z,3.90
2022-10-02T08:01:18.372Z,3.30
2022-10-02T08:03:55.115Z,2.70
2022-10-02T08:06:23.052Z,2.60
2022-10-02T08:09:02.517Z,2.60
2022-10-02T08:11:39.110Z,3.20
2022-10-02T08:14:25.559Z,3.00
2022-10-02T08:16:56.796Z,1.70
2022-10-02T08:19:49.856Z,2.10
2022-10-02T08:22:25.721Z,1.90
2022-10-02T08:25:01.589Z,2.80
2022-10-02T08:27:35.476Z,2.40
2022-10-02T08:32:36.684Z,2.50
2022-10-02T08:35:45.228Z,2.30
2022-10-02T08:38:32.636Z,3.70
2022-10-02T08:41:09.302Z,2.40
2022-10-02T08:43:39.944Z,3.20
2022-10-02T08:46:35.156Z,2.50
2022-10-02T08:49:27.319Z,2.80
2022-10-02T08:52:29.065Z,2.90
2022-10-02T08:55:02.736Z,3.00
2022-10-02T08:58:03.978Z,4.50
2022-10-02T09:00:41.915Z,5.80
2022-10-02T09:03:30.949Z,3.20
2022-10-02T09:06:10.531Z,3.40
2022-10-02T09:08:47.149Z,3.40
2022-10-02T09:11:14.973Z,3.50
2022-10-02T09:14:10.563Z,4.30
2022-10-02T09:17:00.343Z,4.00
2022-10-02T09:19:41.702Z,4.50
2022-10-02T09:22:40.602Z,4.30
2022-10-02T09:25:22.601Z,4.60
2022-10-02T09:28:12.407Z,4.50
2022-10-02T09:31:06.131Z,3.90
2022-10-02T09:33:54.909Z,4.30
2022-10-02T09:37:04.305Z,3.50
2022-10-02T09:39:43.049Z,3.00
2022-10-02T09:42:42.236Z,2.30
2022-10-02T09:45:32.510Z,3.80
2022-10-02T09:48:45.340Z,2.40
2022-10-02T09:51:36.282Z,2.40
2022-10-02T09:54:42.561Z,3.20
2022-10-02T09:57:32.154Z,3.10
2022-10-02T10:00:05.255Z,2.20
2022-10-02T10:02:46.963Z,3.20
2022-10-02T10:05:39.481Z,2.00
2022-10-02T10:08:16.190Z,3.50
2022-10-02T10:11:29.310Z,1.90
2022-10-02T10:14:24.687Z,2.10
2022-10-02T10:17:19.319Z,2.40
2022-10-02T10:20:22.354Z,2.40
2022-10-02T10:23:40.882Z,2.10
2022-10-02T10:26:42.025Z,2.10
2022-10-02T10:29:28.165Z,3.00
2022-10-02T10:32:12.284Z,3.80
2022-10-02T10:34:55.735Z,1.90
2022-10-02T10:37:57.725Z,2.50
2022-10-02T10:40:38.800Z,3.00
2022-10-02T10:43:16.812Z,1.90
2022-10-02T10:46:13.249Z,3.10
2022-10-02T10:48:47.103Z,2.30
2022-10-02T10:51:46.199Z,2.20
2022-10-02T10:54:32.850Z,1.70
2022-10-02T10:57:18.204Z,5.10
2022-10-02T10:59:58.775Z,1.80
2022-10-02T11:02:55.325Z,1.90
2022-10-02T11:05:38.094Z,1.90
2022-10-02T11:08:25.405Z,2.20
2022-10-02T11:11:11.736Z,1.60
2022-10-02T11:13:48.495Z,2.60
2022-10-02T11:16:45.780Z,3.50
2022-10-02T11:19:26.676Z,1.60
2022-10-02T11:22:17.429Z,2.30
2022-10-02T11:25:12.925Z,2.30
2022-10-02T11:27:50.928Z,1.60
2022-10-02T11:30:59.067Z,2.50
2022-10-02T11:33:41.798Z,1.60
2022-10-02T11:36:24.776Z,2.00
2022-10-02T11:39:36.302Z,1.50
2022-10-02T11:42:33.508Z,2.10
2022-10-02T11:45:29.537Z,3.20
2022-10-02T11:48:24.184Z,2.10
2022-10-02T11:50:55.106Z,1.60
2022-10-02T11:53:39.669Z,2.60
2022-10-02T11:56:25.333Z,3.00
2022-10-02T11:59:18.672Z,3.90
2022-10-02T12:01:58.197Z,1.70
2022-10-02T12:04:57.438Z,4.10
2022-10-02T12:07:36.694Z,2.10
2022-10-02T12:10:53.742Z,2.50
2022-10-02T12:13:43.151Z,3.10
2022-10-02T12:16:36.404Z,2.80
2022-10-02T12:20:05.174Z,2.70
2022-10-02T12:23:11.226Z,4.00
2022-10-02T12:26:18.305Z,2.70
2022-10-02T12:28:56.254Z,2.40
2022-10-02T12:31:37.165Z,1.70
2022-10-02T12:34:40.259Z,4.60
2022-10-02T12:37:45.011Z,1.60
2022-10-02T12:40:41.813Z,2.50
2022-10-02T12:43:38.349Z,2.00
2022-10-02T12:46:23.885Z,2.40
2022-10-02T12:49:09.987Z,2.80
2022-10-02T12:51:54.630Z,2.40
2022-10-02T12:54:34.999Z,4.00
2022-10-02T12:57:42.505Z,2.40
2022-10-02T13:00:16.305Z,1.60
2022-10-02T13:03:01.782Z,3.00
2022-10-02T13:06:03.679Z,2.90
2022-10-02T13:09:05.095Z,2.40
2022-10-02T13:11:49.040Z,2.80
2022-10-02T13:14:48.402Z,2.00
2022-10-02T13:17:48.745Z,3.50
2022-10-02T13:20:37.991Z,2.80
2022-10-02T13:23:20.430Z,1.70
2022-10-02T13:25:56.360Z,1.80
2022-10-02T13:28:27.222Z,2.20
2022-10-02T13:31:22.153Z,2.60
2022-10-02T13:34:25.435Z,2.80
2022-10-02T13:37:25.405Z,3.10
2022-10-02T13:39:59.225Z,5.90
2022-10-02T13:45:11.472Z,2.50
2022-10-02T13:47:52.532Z,2.20
2022-10-02T13:50:42.062Z,2.20
2022-10-02T13:53:12.678Z,1.80
2022-10-02T13:55:48.101Z,4.60
2022-10-02T13:58:57.083Z,3.90
2022-10-02T14:01:35.278Z,1.80
2022-10-02T14:04:22.706Z,2.70
2022-10-02T14:07:12.217Z,4.40
2022-10-02T14:10:01.924Z,2.50
2022-10-02T14:12:55.049Z,1.30
2022-10-02T14:15:31.047Z,2.40
2022-10-02T14:18:13.920Z,3.60
2022-10-02T14:21:40.736Z,2.00
2022-10-02T14:24:14.225Z,4.60
2022-10-02T14:27:11.746Z,1.60
2022-10-02T14:29:39.523Z,4.20
2022-10-02T14:32:23.734Z,2.70
2022-10-02T14:35:19.327Z,1.40
2022-10-02T14:37:58.413Z,2.70
2022-10-02T14:40:33.232Z,2.30
2022-10-02T14:43:25.187Z,3.10
2022-10-02T14:45:55.969Z,2.50
2022-10-02T14:48:48.487Z,2.80
2022-10-02T14:51:51.914Z,3.00
2022-10-02T14:54:46.966Z,3.00
2022-10-02T14:57:23.655Z,2.10
2022-10-02T15:00:00.574Z,2.20
2022-10-02T15:02:40.648Z,2.70
2022-10-02T15:05:55.168Z,2.10
2022-10-02T15:08:39.177Z,3.00
2022-10-02T15:13:58.383Z,1.80
2022-10-02T15:16:58.491Z,2.00
2022-10-02T15:19:35.432Z,5.20
2022-10-02T15:22:03.151Z,3.60
2022-10-02T15:24:43.020Z,3.00
2022-10-02T15:27:29.061Z,2.60
2022-10-02T15:30:21.415Z,4.80
2022-10-02T15:32:59.547Z,3.70
2022-10-02T15:35:54.191Z,3.20
2022-10-02T15:38:30.552Z,3.40
2022-10-02T15:41:22.681Z,2.70
2022-10-02T15:44:28.061Z,2.50
2022-10-02T15:47:26.220Z,3.10
2022-10-02T15:49:54.316Z,2.20
2022-10-02T15:52:28.162Z,5.40
2022-10-02T15:57:51.443Z,7.00
2022-10-02T16:00:22.725Z,5.10
2022-10-02T16:03:02.277Z,5.10
2022-10-02T16:05:48.509Z,3.60
2022-10-02T16:08:41.705Z,2.80
2022-10-02T16:11:34.771Z,5.60
2022-10-02T16:14:30.123Z,6.70
2022-10-02T16:17:12.588Z,4.90
2022-10-02T16:20:14.567Z,6.40
2022-10-02T16:22:52.490Z,4.30
2022-10-02T16:25:31.343Z,3.10
2022-10-02T16:28:21.043Z,4.40
2022-10-02T16:30:52.811Z,5.60
2022-10-02T16:33:47.801Z,6.00
2022-10-02T16:36:39.109Z,3.10
2022-10-02T16:39:34.026Z,5.50
2022-10-02T16:42:25.801Z,4.30
2022-10-02T16:45:25.894Z,3.90
2022-10-02T16:48:09.766Z,5.20
2022-10-02T16:51:05.955Z,6.10
2022-10-02T16:54:09.635Z,3.70
2022-10-02T16:56:44.963Z,4.00
2022-10-02T16:59:19.032Z,5.20
2022-10-02T17:02:16.912Z,3.80
2022-10-02T17:04:59.439Z,4.20
2022-10-02T17:07:37.560Z,8.80
2022-10-02T17:10:19.150Z,8.50
2022-10-02T17:13:00.968Z,7.00
2022-10-02T17:15:39.171Z,8.00
2022-10-02T17:18:19.293Z,6.70
2022-10-02T17:20:54.974Z,5.30
2022-10-02T17:23:49.307Z,6.30
2022-10-02T17:29:38.460Z,5.80
2022-10-02T17:32:10.183Z,5.90
2022-10-02T17:34:49.907Z,3.80
2022-10-02T17:37:17.642Z,4.70
2022-10-02T17:40:14.026Z,4.40
2022-10-02T17:42:53.055Z,4.60
2022-10-02T17:45:30.113Z,5.80
2022-10-02T17:48:35.784Z,3.70
2022-10-02T17:51:52.673Z,4.00
2022-10-02T17:55:47.401Z,4.50
2022-10-02T17:58:35.676Z,6.10
2022-10-02T18:01:57.681Z,4.90
2022-10-02T18:04:36.391Z,4.40
2022-10-02T18:07:45.876Z,6.00
2022-10-02T18:10:18.624Z,8.30
2022-10-02T18:13:01.172Z,6.00
2022-10-02T18:15:43.897Z,3.90
2022-10-02T18:18:38.424Z,4.60
2022-10-02T18:21:23.701Z,4.70
2022-10-02T18:24:42.829Z,5.60
2022-10-02T18:27:37.826Z,5.70
2022-10-02T18:30:08.916Z,4.20
2022-10-02T18:33:01.905Z,4.90
2022-10-02T18:36:12.708Z,5.80
2022-10-02T18:39:00.397Z,4.60
2022-10-02T18:41:41.263Z,5.80
2022-10-02T18:44:45.186Z,5.20
2022-10-02T18:47:38.657Z,5.40
2022-10-02T18:50:28.968Z,8.10
2022-10-02T18:53:28.973Z,7.00
2022-10-02T18:56:12.430Z,4.50
2022-10-02T18:58:49.116Z,6.00
2022-10-02T19:01:29.266Z,6.80
2022-10-02T19:04:17.466Z,7.40
2022-10-02T19:06:55.609Z,4.80
2022-10-02T19:09:27.233Z,4.10
2022-10-02T19:11:58.386Z,6.30
2022-10-02T19:14:35.149Z,9.40
2022-10-02T19:17:12.324Z,4.60
2022-10-02T19:19:41.255Z,8.70
2022-10-02T19:22:36.420Z,5.70
2022-10-02T19:25:13.577Z,8.00
2022-10-02T19:27:47.684Z,6.70
2022-10-02T19:30:27.601Z,5.50
2022-10-02T19:32:58.766Z,7.60
2022-10-02T19:35:34.724Z,5.10
2022-10-02T19:38:15.025Z,5.50
2022-10-02T19:40:43.288Z,8.00
2022-10-02T19:43:33.780Z,3.70
2022-10-02T19:46:08.482Z,4.70
2022-10-02T19:48:36.567Z,5.20
2022-10-02T19:51:17.159Z,4.30
2022-10-02T19:53:53.466Z,5.70
2022-10-02T19:56:34.395Z,6.90
2022-10-02T19:59:21.108Z,6.30
2022-10-02T20:01:52.306Z,5.90
2022-10-02T20:04:26.156Z,5.50
2022-10-02T20:09:50.820Z,6.80
2022-10-02T20:12:26.799Z,5.20
2022-10-02T20:15:01.984Z,5.70
2022-10-02T20:17:31.808Z,6.80
2022-10-02T20:20:04.982Z,6.00
2022-10-02T20:22:52.497Z,7.80
2022-10-02T20:25:26.731Z,5.80
2022-10-02T20:28:03.392Z,6.50
2022-10-02T20:30:40.505Z,6.40
2022-10-02T20:33:20.818Z,7.20
2022-10-02T20:36:26.198Z,8.20
2022-10-02T20:39:11.380Z,7.70
2022-10-02T20:41:46.142Z,6.10
2022-10-02T20:44:14.228Z,7.50
2022-10-02T20:47:17.381Z,6.70
2022-10-02T20:49:47.789Z,8.30
2022-10-02T20:52:36.382Z,5.00
2022-10-02T20:55:33.618Z,6.20
2022-10-02T20:58:04.202Z,6.90
2022-10-02T21:01:07.285Z,7.10
2022-10-02T21:03:56.467Z,6.70
2022-10-02T21:06:50.617Z,9.00
2022-10-02T21:09:48.098Z,7.20
2022-10-02T21:12:50.321Z,8.40
2022-10-02T21:15:18.168Z,8.50
2022-10-02T21:18:09.712Z,8.00
2022-10-02T21:21:15.293Z,9.30
2022-10-02T21:24:01.532Z,7.50
2022-10-02T21:26:43.489Z,8.70
2022-10-02T21:29:17.121Z,9.50
2022-10-02T21:32:11.528Z,6.40
2022-10-02T21:37:19.261Z,8.50
2022-10-02T21:40:35.283Z,8.30
2022-10-02T21:43:17.976Z,8.80
2022-10-02T21:46:10.337Z,8.30
2022-10-02T21:48:56.648Z,9.20
2022-10-02T21:51:39.978Z,8.60
2022-10-02T21:54:26.373Z,7.50
2022-10-02T21:57:21.476Z,5.70
2022-10-02T22:00:09.084Z,8.50
2022-10-02T22:03:00.174Z,6.70
2022-10-02T22:05:41.718Z,6.00
2022-10-02T22:08:21.614Z,5.30
2022-10-02T22:10:58.186Z,9.00
2022-10-02T22:13:37.141Z,9.10
2022-10-02T22:16:43.155Z,7.80
2022-10-02T22:19:26.232Z,7.80
2022-10-02T22:22:08.628Z,8.20
2022-10-02T22:25:08.309Z,7.70
2022-10-02T22:28:32.403Z,7.10
2022-10-02T22:31:24.471Z,12.20
2022-10-02T22:34:05.992Z,7.10
2022-10-02T22:36:43.868Z,5.30
2022-10-02T22:39:44.289Z,7.80
2022-10-02T22:42:34.286Z,8.30
2022-10-02T22:45:19.420Z,7.10
2022-10-02T22:48:04.512Z,11.20
2022-10-02T22:50:48.244Z,8.20
2022-10-02T22:53:31.597Z,6.80
2022-10-02T22:55:59.703Z,9.80
2022-10-02T22:58:41.994Z,6.40
2022-10-02T23:01:30.040Z,5.10
2022-10-02T23:04:08.163Z,5.70
2022-10-02T23:06:42.828Z,5.50
2022-10-02T23:09:57.871Z,6.80
2022-10-02T23:15:07.287Z,6.80
2022-10-02T23:17:46.103Z,7.90
2022-10-02T23:20:27.535Z,6.30
2022-10-02T23:23:14.989Z,6.50
2022-10-02T23:25:50.397Z,9.20
2022-10-02T23:28:52.624Z,7.00
2022-10-02T23:31:32.188Z,7.70
2022-10-02T23:34:19.693Z,8.60
2022-10-02T23:36:58.358Z,8.00
2022-10-02T23:39:34.876Z,7.50
2022-10-02T23:42:06.011Z,10.00
2022-10-02T23:44:49.711Z,5.90
2022-10-02T23:47:46.209Z,8.00
2022-10-02T23:50:25.970Z,4.70
2022-10-02T23:53:06.037Z,8.90
2022-10-02T23:56:00.499Z,5.40
2022-10-02T23:58:54.504Z,7.30
